Time;durP1;ratioP1;P1;durP2;ratioP2;P2;SDS_P1;SDS_P2;PMS_P1;PMS_P2;Temp;Humidity;BMP_temperature;BMP_pressure;BME280_temperature;BME280_humidity;BME280_pressure;Samples;Min_cycle;Max_cycle;Signal;HPM_P1;HPM_P2
2023/01/27 00:01:31;;;;;;;15.73;8.15;;;4.50;99.90;;;;;;4932692;29;20134;-92
2023/01/27 00:04:17;;;;;;;15.40;8.55;;;4.60;99.90;;;;;;4919394;29;20482;-90
2023/01/27 00:06:43;;;;;;;17.88;9.25;;;4.60;99.90;;;;;;4932921;29;20115;-93
2023/01/27 00:09:11;;;;;;;16.20;8.82;;;4.80;99.90;;;;;;4934238;29;20227;-88
2023/01/27 00:14:41;;;;;;;15.45;8.90;;;3.70;99.90;;;;;;4916801;28;20051;-87
2023/01/27 00:17:20;;;;;;;20.67;8.98;;;5.10;99.90;;;;;;4932687;29;20051;-95
2023/01/27 00:19:46;;;;;;;13.82;8.93;;;4.70;99.90;;;;;;4925846;28;20058;-87
2023/01/27 00:25:04;;;;;;;18.83;9.07;;;3.90;99.90;;;;;;5017308;28;20148;-91
2023/01/27 00:27:30;;;;;;;13.53;8.83;;;3.70;99.90;;;;;;4999827;28;20103;-86
2023/01/27 00:29:56;;;;;;;15.63;8.75;;;4.00;99.90;;;;;;5014990;28;20049;-87
2023/01/27 00:35:11;;;;;;;15.27;9.30;;;4.40;99.90;;;;;;5015354;28;20083;-93
2023/01/27 00:37:37;;;;;;;16.30;8.93;;;4.10;99.90;;;;;;5015547;28;20057;-87
2023/01/27 00:40:19;;;;;;;17.73;10.10;;;4.30;99.90;;;;;;4999273;28;20052;-94
2023/01/27 00:42:52;;;;;;;20.23;9.68;;;3.60;99.90;;;;;;5035516;28;20037;-92
2023/01/27 00:48:20;;;;;;;16.92;8.38;;;5.00;99.90;;;;;;5034185;28;20457;-90
2023/01/27 00:50:56;;;;;;;;;;;;;;;;;;;;;
2023/01/27 00:53:25;;;;;;;15.82;8.27;;;3.90;99.90;;;;;;4989376;28;20415;-87
2023/01/27 00:55:50;;;;;;;15.20;8.43;;;3.90;99.90;;;;;;4972731;28;20086;-86
2023/01/27 00:58:16;;;;;;;15.52;7.30;;;3.80;99.90;;;;;;4974322;28;20149;-86
2023/01/27 01:00:43;;;;;;;12.75;7.32;;;4.30;99.90;;;;;;4989733;28;20074;-86
2023/01/27 01:03:11;;;;;;;15.70;7.57;;;4.30;99.90;;;;;;4990721;28;20065;-87
2023/01/27 01:05:37;;;;;;;11.82;7.07;;;4.50;99.90;;;;;;4957820;28;20144;-87
2023/01/27 01:08:02;;;;;;;10.90;6.10;;;4.50;99.90;;;;;;4972881;28;20117;-85
2023/01/27 01:10:30;;;;;;;11.15;6.05;;;3.80;99.90;;;;;;4989547;28;20553;-90
2023/01/27 01:12:56;;;;;;;12.95;5.93;;;3.80;99.90;;;;;;4974382;28;20085;-86
2023/01/27 01:15:27;;;;;;;9.13;5.38;;;4.40;99.90;;;;;;4975633;28;20473;-91
2023/01/27 01:18:24;;;;;;;10.70;5.55;;;4.40;99.90;;;;;;4975846;28;20057;-90
2023/01/27 01:20:50;;;;;;;12.73;5.38;;;4.20;99.90;;;;;;4941018;28;20120;-88
2023/01/27 01:23:16;;;;;;;11.52;5.35;;;4.10;99.90;;;;;;4989595;28;20050;-87
2023/01/27 01:25:42;;;;;;;11.65;5.22;;;4.70;99.90;;;;;;4985328;28;20042;-85
2023/01/27 01:28:08;;;;;;;11.70;5.03;;;3.60;99.90;;;;;;4994109;28;20592;-89
2023/01/27 01:30:37;;;;;;;11.75;5.60;;;3.80;99.90;;;;;;5011133;28;20045;-95
2023/01/27 01:33:20;;;;;;;9.98;4.68;;;4.60;99.90;;;;;;5013306;28;20504;-89
2023/01/27 01:35:46;;;;;;;11.48;4.97;;;3.80;99.90;;;;;;4975705;28;20085;-88
2023/01/27 01:38:15;;;;;;;9.93;4.90;;;4.30;99.90;;;;;;4976399;28;20109;-93
2023/01/27 01:40:59;;;;;;;7.20;4.15;;;4.20;99.90;;;;;;4996585;28;20142;-93
2023/01/27 01:43:26;;;;;;;9.07;4.47;;;3.90;99.90;;;;;;4980115;28;20129;-87
2023/01/27 01:45:59;;;;;;;7.25;4.00;;;4.60;99.90;;;;;;4960348;28;20178;-87
2023/01/27 01:48:41;;;;;;;12.27;4.00;;;4.30;99.90;;;;;;4974765;28;20054;-89
2023/01/27 01:51:47;;;;;;;6.43;3.30;;;3.80;99.90;;;;;;4964259;28;20584;-93
2023/01/27 01:54:33;;;;;;;6.15;4.00;;;4.60;99.90;;;;;;4975935;28;20049;-88
2023/01/27 01:57:22;;;;;;;8.38;3.33;;;3.80;99.90;;;;;;4976329;28;20062;-88
2023/01/27 02:00:05;;;;;;;5.30;2.60;;;3.80;99.90;;;;;;4978072;28;20086;-90
2023/01/27 02:02:39;;;;;;;6.72;2.60;;;4.70;99.90;;;;;;4978337;28;20564;-90
2023/01/27 02:05:29;;;;;;;4.88;2.17;;;4.00;99.90;;;;;;5012382;28;20489;-96
2023/01/27 02:08:07;;;;;;;6.03;2.33;;;4.30;99.90;;;;;;4975489;28;20133;-88
2023/01/27 02:10:38;;;;;;;4.47;2.40;;;4.70;99.90;;;;;;4958293;28;20225;-89
2023/01/27 02:13:12;;;;;;;4.85;2.30;;;4.10;99.90;;;;;;4975929;28;20145;-93
2023/01/27 02:15:44;;;;;;;5.05;2.50;;;4.10;99.90;;;;;;4993561;28;20043;-96
2023/01/27 02:18:10;;;;;;;4.82;2.47;;;3.80;99.90;;;;;;4961357;28;20511;-87
2023/01/27 02:20:48;;;;;;;10.60;3.25;;;3.40;99.90;;;;;;4994053;28;20045;-92
2023/01/27 02:23:33;;;;;;;11.10;2.53;;;3.80;99.90;;;;;;4993949;28;20053;-88
2023/01/27 02:26:14;;;;;;;9.13;3.10;;;3.80;99.90;;;;;;4994574;28;20049;-88
2023/01/27 02:28:55;;;;;;;5.85;2.85;;;3.80;99.90;;;;;;5013018;28;20438;-95
2023/01/27 02:31:24;;;;;;;6.22;2.47;;;4.50;99.90;;;;;;5013671;28;20053;-87
2023/01/27 02:33:53;;;;;;;9.57;2.83;;;3.80;99.90;;;;;;4997060;28;20069;-88
2023/01/27 02:36:31;;;;;;;4.78;2.65;;;4.50;99.90;;;;;;5035883;28;20481;-92
2023/01/27 02:39:03;;;;;;;6.63;2.83;;;3.60;99.90;;;;;;5016483;28;20056;-89
2023/01/27 02:42:06;;;;;;;7.75;2.50;;;3.70;99.90;;;;;;5001930;28;20183;-91
2023/01/27 02:44:32;;;;;;;7.22;2.25;;;3.70;99.90;;;;;;4919093;29;20062;-88
2023/01/27 02:47:05;;;;;;;4.57;2.00;;;4.70;99.90;;;;;;4919755;29;20123;-95
2023/01/27 02:49:36;;;;;;;7.85;2.03;;;3.70;99.90;;;;;;4934972;29;20895;-93
2023/01/27 02:52:02;;;;;;;5.18;1.60;;;3.70;99.90;;;;;;4919357;29;20536;-88
2023/01/27 02:54:33;;;;;;;6.07;1.88;;;4.70;99.90;;;;;;4935825;29;20096;-90
2023/01/27 02:57:03;;;;;;;6.38;1.48;;;4.80;99.90;;;;;;4919173;29;21012;-95
2023/01/27 02:59:29;;;;;;;4.72;1.55;;;4.60;99.90;;;;;;4934056;29;20040;-87
2023/01/27 03:02:13;;;;;;;3.40;1.13;;;4.40;99.90;;;;;;4919518;28;20482;-90
2023/01/27 03:04:55;;;;;;;2.63;1.10;;;4.20;99.90;;;;;;4920639;29;20052;-90
2023/01/27 03:07:20;;;;;;;7.32;1.35;;;3.70;99.90;;;;;;4936220;28;20411;-86
2023/01/27 03:10:02;;;;;;;3.42;1.10;;;4.50;99.90;;;;;;4910816;29;20052;-89
2023/01/27 03:12:48;;;;;;;2.00;0.80;;;3.10;99.90;;;;;;4921198;29;20483;-91
2023/01/27 03:18:12;;;;;;;2.90;0.95;;;3.70;99.90;;;;;;4921540;29;20072;-94
2023/01/27 03:20:40;;;;;;;2.45;0.80;;;4.20;99.90;;;;;;4951307;28;20058;-93
2023/01/27 03:23:20;;;;;;;3.65;1.10;;;4.40;99.90;;;;;;5004831;28;20397;-96
2023/01/27 03:25:47;;;;;;;8.07;1.23;;;4.60;99.90;;;;;;5001845;28;20041;-90
2023/01/27 03:28:20;;;;;;;9.88;1.00;;;4.30;99.90;;;;;;5002737;28;20045;-94
2023/01/27 03:30:49;;;;;;;6.40;1.20;;;4.30;99.90;;;;;;5018412;28;20045;-95
2023/01/27 03:33:41;;;;;;;3.40;1.00;;;4.10;99.90;;;;;;5012739;28;20080;-93
2023/01/27 03:48:01;;;;;;;3.63;1.27;;;3.10;99.90;;;;;;4997774;28;20050;-87
2023/01/27 03:50:36;;;;;;;4.88;1.20;;;4.10;99.90;;;;;;4996612;28;20747;-88
2023/01/27 03:53:13;;;;;;;3.47;1.10;;;4.30;99.90;;;;;;4987566;28;20041;-87
2023/01/27 03:56:08;;;;;;;3.95;0.90;;;3.50;99.90;;;;;;5017054;28;20056;-89
2023/01/27 03:58:41;;;;;;;3.40;0.98;;;3.90;99.90;;;;;;4999244;28;20046;-95
2023/01/27 04:01:20;;;;;;;4.88;1.00;;;4.50;99.90;;;;;;5001094;28;20123;-84
2023/01/27 04:06:57;;;;;;;8.43;1.27;;;3.90;99.90;;;;;;5016444;28;20061;-91
2023/01/27 04:09:29;;;;;;;5.82;1.20;;;3.60;99.90;;;;;;4971431;28;20096;-85
2023/01/27 04:11:57;;;;;;;8.05;1.45;;;4.00;99.90;;;;;;5015478;28;20049;-86
2023/01/27 04:18:36;;;;;;;7.35;1.10;;;3.60;99.90;;;;;;5467735;22;20060;-93
2023/01/27 04:21:05;;;;;;;4.50;0.98;;;3.50;99.90;;;;;;5028434;23;20050;-86
2023/01/27 04:23:31;;;;;;;4.63;1.10;;;3.60;99.90;;;;;;5014882;28;20076;-86
2023/01/27 04:25:59;;;;;;;5.20;1.38;;;4.40;99.90;;;;;;5014328;28;20056;-88
2023/01/27 04:28:28;;;;;;;6.25;1.13;;;3.50;99.90;;;;;;4997756;28;20056;-87
2023/01/27 04:31:02;;;;;;;6.47;1.20;;;3.40;99.90;;;;;;4999140;28;20129;-90
2023/01/27 04:33:28;;;;;;;2.38;0.80;;;4.60;99.90;;;;;;4999370;28;20046;-86
2023/01/27 04:36:15;;;;;;;5.28;0.80;;;2.90;99.90;;;;;;4999515;28;20052;-91
2023/01/27 04:38:47;;;;;;;3.58;0.82;;;3.80;99.90;;;;;;4998214;28;20046;-88
2023/01/27 04:41:13;;;;;;;4.47;1.10;;;3.40;99.90;;;;;;4997737;28;20480;-87
2023/01/27 04:43:42;;;;;;;5.25;0.90;;;2.80;99.90;;;;;;5014637;28;20128;-89
2023/01/27 04:46:19;;;;;;;6.63;1.13;;;3.40;99.90;;;;;;4997399;28;20049;-89
2023/01/27 04:48:45;;;;;;;4.45;1.10;;;3.70;99.90;;;;;;4997846;28;20053;-87
2023/01/27 04:52:00;;;;;;;2.60;1.30;;;4.10;99.90;;;;;;4998571;28;20041;-93
2023/01/27 04:54:41;;;;;;;9.00;1.30;;;3.30;99.90;;;;;;4902160;29;20142;-91
2023/01/27 04:57:15;;;;;;;4.65;1.45;;;4.20;99.90;;;;;;4916463;29;20055;-87
2023/01/27 04:59:54;;;;;;;3.30;0.90;;;3.10;99.90;;;;;;4918123;29;20146;-92
2023/01/27 05:02:25;;;;;;;4.35;1.27;;;4.30;99.90;;;;;;4902108;29;20306;-90
2023/01/27 05:05:03;;;;;;;3.40;1.00;;;3.80;99.90;;;;;;4917556;29;20056;-89
2023/01/27 05:07:50;;;;;;;7.82;1.30;;;3.30;99.90;;;;;;4901711;29;20057;-92
2023/01/27 05:10:26;;;;;;;7.68;1.27;;;3.70;99.90;;;;;;4882540;29;20519;-89
2023/01/27 05:12:55;;;;;;;5.55;1.33;;;3.70;99.90;;;;;;4897897;29;20520;-87
2023/01/27 05:19:01;;;;;;;6.10;1.50;;;3.00;99.90;;;;;;4823427;29;20498;-91
2023/01/27 05:22:00;;;;;;;7.70;1.73;;;3.40;99.90;;;;;;4817766;29;20064;-90
2023/01/27 05:25:07;;;;;;;5.55;1.73;;;4.10;99.90;;;;;;4806170;29;20595;-91
2023/01/27 05:27:45;;;;;;;5.85;1.60;;;3.60;99.90;;;;;;4823749;29;20272;-93
2023/01/27 05:30:17;;;;;;;6.63;1.80;;;3.70;99.90;;;;;;4823975;29;20680;-89
2023/01/27 05:32:48;;;;;;;3.05;1.55;;;3.30;99.90;;;;;;4878613;29;20492;-85
2023/01/27 05:35:17;;;;;;;5.25;1.40;;;3.40;99.90;;;;;;4862780;29;20057;-85
2023/01/27 05:37:48;;;;;;;6.03;1.50;;;3.30;99.90;;;;;;4861941;29;20052;-89
2023/01/27 05:40:16;;;;;;;9.27;1.50;;;3.30;99.90;;;;;;4858728;29;20504;-91
2023/01/27 05:42:42;;;;;;;4.03;1.38;;;3.40;99.90;;;;;;4845256;29;20151;-89
2023/01/27 05:45:08;;;;;;;6.43;1.70;;;4.20;99.90;;;;;;4858255;29;20140;-86
2023/01/27 05:47:34;;;;;;;4.38;1.42;;;3.30;99.90;;;;;;4860118;29;20108;-87
2023/01/27 05:50:15;;;;;;;5.38;1.45;;;3.70;99.90;;;;;;4873896;29;20069;-87
2023/01/27 05:52:44;;;;;;;5.95;1.88;;;3.30;99.90;;;;;;4843645;29;20053;-87
2023/01/27 05:55:10;;;;;;;5.65;1.98;;;3.60;99.90;;;;;;4957339;28;20903;-86
2023/01/27 05:57:36;;;;;;;8.93;1.95;;;4.20;99.90;;;;;;4994717;28;20062;-86
2023/01/27 06:00:02;;;;;;;5.80;1.50;;;3.90;99.90;;;;;;5029618;28;20129;-85
2023/01/27 06:02:27;;;;;;;3.58;1.20;;;3.30;99.90;;;;;;4995745;28;20053;-87
2023/01/27 06:04:53;;;;;;;4.07;1.52;;;2.80;99.90;;;;;;5029828;28;20042;-88
2023/01/27 06:07:19;;;;;;;2.97;1.25;;;3.80;99.90;;;;;;5011787;28;20050;-87
2023/01/27 06:09:44;;;;;;;5.28;1.20;;;4.00;99.90;;;;;;5032071;28;20053;-88
2023/01/27 06:12:22;;;;;;;5.45;1.55;;;3.80;99.90;;;;;;5000584;28;20415;-89
2023/01/27 06:14:48;;;;;;;4.13;1.48;;;4.10;99.90;;;;;;5015675;28;20041;-86
2023/01/27 06:17:14;;;;;;;5.03;1.20;;;4.10;99.90;;;;;;4998976;28;20042;-89
2023/01/27 06:19:39;;;;;;;5.63;1.10;;;4.30;99.90;;;;;;5015557;28;20053;-87
2023/01/27 06:22:10;;;;;;;6.47;1.30;;;3.60;99.90;;;;;;5016437;28;20096;-94
2023/01/27 06:24:38;;;;;;;4.53;1.20;;;4.00;99.90;;;;;;4996574;28;20062;-92
2023/01/27 06:27:04;;;;;;;4.30;1.23;;;4.30;99.90;;;;;;5014008;28;20081;-86
2023/01/27 06:29:30;;;;;;;4.95;1.33;;;3.50;99.90;;;;;;5016099;28;20089;-87
2023/01/27 06:31:58;;;;;;;3.10;1.10;;;4.00;99.90;;;;;;4981805;28;20049;-90
2023/01/27 06:34:27;;;;;;;5.15;1.05;;;4.40;99.90;;;;;;5014981;28;20132;-95
2023/01/27 06:36:57;;;;;;;10.00;1.55;;;4.20;99.90;;;;;;4980629;28;20132;-90
2023/01/27 06:39:23;;;;;;;5.20;1.17;;;4.00;99.90;;;;;;4980253;28;20088;-87
2023/01/27 06:41:52;;;;;;;3.00;1.20;;;4.00;99.90;;;;;;5014643;28;20085;-90
2023/01/27 06:44:17;;;;;;;2.80;1.00;;;3.80;99.90;;;;;;4996014;28;20048;-87
2023/01/27 06:46:43;;;;;;;6.63;1.50;;;3.70;99.90;;;;;;4979031;28;20235;-87
2023/01/27 06:49:09;;;;;;;6.03;1.55;;;3.70;99.90;;;;;;4979852;28;20799;-88
2023/01/27 06:51:35;;;;;;;6.78;1.48;;;3.70;99.90;;;;;;5013415;28;20042;-86
2023/01/27 06:54:01;;;;;;;6.43;1.20;;;3.60;99.90;;;;;;5012849;28;20670;-87
2023/01/27 06:56:26;;;;;;;3.22;1.20;;;3.20;99.90;;;;;;5012832;28;20041;-87
2023/01/27 06:58:52;;;;;;;4.93;1.45;;;4.10;99.90;;;;;;4979216;28;20061;-89
2023/01/27 07:01:18;;;;;;;2.10;1.10;;;4.00;99.90;;;;;;4995471;28;20088;-87
2023/01/27 07:03:43;;;;;;;8.15;1.23;;;3.50;99.90;;;;;;4978503;28;20133;-86
2023/01/27 07:06:10;;;;;;;5.03;1.38;;;3.70;99.90;;;;;;4995305;28;20056;-87
2023/01/27 07:08:35;;;;;;;4.88;1.40;;;3.80;99.90;;;;;;5012926;28;20049;-87
2023/01/27 07:11:03;;;;;;;7.43;1.00;;;3.60;99.90;;;;;;5012540;28;20050;-87
2023/01/27 07:13:29;;;;;;;4.32;0.98;;;3.10;99.90;;;;;;4994984;28;20049;-87
2023/01/27 07:15:55;;;;;;;4.32;1.05;;;4.00;99.90;;;;;;4994898;28;20049;-89
2023/01/27 07:18:21;;;;;;;5.78;1.02;;;3.60;99.90;;;;;;5012858;28;20104;-87
2023/01/27 07:20:46;;;;;;;2.50;1.10;;;3.90;99.90;;;;;;4998204;28;20053;-87
2023/01/27 07:23:12;;;;;;;1.58;0.90;;;4.10;99.90;;;;;;5012836;28;20081;-87
2023/01/27 07:25:38;;;;;;;4.72;1.20;;;3.60;99.90;;;;;;5011470;28;20548;-88
2023/01/27 07:28:05;;;;;;;5.90;1.30;;;3.80;99.90;;;;;;5011166;28;20046;-86
2023/01/27 07:30:34;;;;;;;4.57;1.10;;;3.80;99.90;;;;;;5012380;28;20062;-88
2023/01/27 07:33:07;;;;;;;4.28;1.15;;;4.00;99.90;;;;;;4994627;28;20041;-85
2023/01/27 07:35:35;;;;;;;5.32;1.15;;;3.10;99.90;;;;;;5012326;28;20099;-85
2023/01/27 07:38:01;;;;;;;4.55;1.15;;;3.00;99.90;;;;;;5001498;28;20448;-86
2023/01/27 07:40:27;;;;;;;4.53;1.17;;;4.00;99.90;;;;;;5011852;28;20128;-85
2023/01/27 07:42:52;;;;;;;3.85;1.63;;;3.10;99.90;;;;;;5010896;28;20053;-85
2023/01/27 07:45:18;;;;;;;5.18;1.35;;;3.50;99.90;;;;;;5010734;28;20050;-86
2023/01/27 07:47:43;;;;;;;2.70;1.02;;;3.00;99.90;;;;;;5010319;28;20045;-85
2023/01/27 07:50:11;;;;;;;10.15;1.50;;;3.00;99.90;;;;;;5011919;28;20501;-86
2023/01/27 07:52:36;;;;;;;3.55;0.90;;;3.10;99.90;;;;;;5012138;28;20123;-86
2023/01/27 07:55:02;;;;;;;6.82;1.55;;;3.80;99.90;;;;;;5010520;28;20137;-86
2023/01/27 07:57:28;;;;;;;3.42;1.15;;;3.10;99.90;;;;;;5011618;28;20046;-86
2023/01/27 07:59:55;;;;;;;3.95;1.20;;;3.50;99.90;;;;;;5010111;28;20038;-85
2023/01/27 08:02:30;;;;;;;4.90;1.20;;;3.00;99.90;;;;;;4994887;28;20128;-85
2023/01/27 08:04:56;;;;;;;6.25;1.23;;;4.10;99.90;;;;;;4993462;28;20077;-86
2023/01/27 08:07:21;;;;;;;6.60;1.55;;;3.10;99.90;;;;;;5012052;28;20511;-86
2023/01/27 08:09:47;;;;;;;5.30;1.23;;;3.10;99.90;;;;;;5010211;28;20064;-86
2023/01/27 08:12:13;;;;;;;4.00;1.30;;;3.10;99.90;;;;;;5011736;28;20089;-86
2023/01/27 08:14:39;;;;;;;4.07;1.00;;;3.60;99.90;;;;;;5011596;28;20076;-87
2023/01/27 08:17:04;;;;;;;5.45;1.30;;;4.20;99.90;;;;;;4993910;28;20069;-89
2023/01/27 08:19:36;;;;;;;6.47;1.40;;;3.90;99.90;;;;;;5011616;28;20052;-90
2023/01/27 08:22:02;;;;;;;8.45;1.77;;;3.20;99.90;;;;;;5015829;28;20053;-87
2023/01/27 08:24:49;;;;;;;9.40;1.73;;;3.90;99.90;;;;;;4993665;28;20493;-90
2023/01/27 08:27:17;;;;;;;7.25;1.40;;;4.00;99.90;;;;;;4975101;28;20133;-87
2023/01/27 08:29:43;;;;;;;5.32;1.13;;;3.30;99.90;;;;;;4990926;28;20176;-87
2023/01/27 08:32:09;;;;;;;4.80;1.40;;;4.40;99.90;;;;;;4991385;28;20088;-87
2023/01/27 08:34:36;;;;;;;3.80;1.40;;;4.30;99.90;;;;;;4993524;28;20080;-86
2023/01/27 08:37:02;;;;;;;5.32;1.30;;;4.20;99.90;;;;;;5011457;28;20393;-85
2023/01/27 08:40:09;;;;;;;8.70;1.35;;;3.70;99.90;;;;;;5059831;22;20053;-86
2023/01/27 08:46:13;;;;;;;4.45;1.10;;;3.40;99.90;;;;;;5183967;22;20132;-86
2023/01/27 08:48:47;;;;;;;7.57;1.33;;;3.50;99.90;;;;;;4952515;28;20054;-86
2023/01/27 08:51:16;;;;;;;6.97;1.50;;;4.10;99.90;;;;;;4953162;28;20090;-85
2023/01/27 08:53:42;;;;;;;7.55;1.70;;;3.50;99.90;;;;;;4953250;28;20055;-85
2023/01/27 08:56:11;;;;;;;7.95;1.70;;;3.50;99.90;;;;;;4969318;28;20110;-87
2023/01/27 08:58:37;;;;;;;5.97;1.25;;;3.50;99.90;;;;;;4953914;28;20063;-88
2023/01/27 09:01:04;;;;;;;7.50;1.35;;;4.60;99.90;;;;;;4953412;28;20425;-86
2023/01/27 09:03:31;;;;;;;13.20;1.83;;;3.60;99.90;;;;;;4969201;28;20077;-86
2023/01/27 09:06:11;;;;;;;6.05;1.75;;;4.10;99.90;;;;;;4969046;28;20109;-88
2023/01/27 09:08:37;;;;;;;3.08;1.33;;;4.30;99.90;;;;;;4953034;28;20058;-89
2023/01/27 09:11:28;;;;;;;5.68;1.42;;;4.60;99.90;;;;;;4937266;28;20109;-88
2023/01/27 09:13:55;;;;;;;6.57;1.65;;;4.30;99.90;;;;;;4949240;28;20065;-87
2023/01/27 09:16:21;;;;;;;7.18;1.63;;;3.80;99.90;;;;;;4952812;28;20053;-85
2023/01/27 09:18:49;;;;;;;4.38;1.40;;;4.60;99.90;;;;;;4967492;28;20062;-93
2023/01/27 09:21:15;;;;;;;5.00;1.50;;;4.60;99.90;;;;;;4949449;29;20051;-85
2023/01/27 09:23:41;;;;;;;11.00;2.00;;;3.80;99.90;;;;;;4945632;28;20055;-85
2023/01/27 09:26:06;;;;;;;9.48;1.75;;;3.90;99.90;;;;;;5001339;28;20084;-88
2023/01/27 09:28:32;;;;;;;5.95;1.67;;;4.40;99.90;;;;;;5009116;28;20080;-88
2023/01/27 09:31:01;;;;;;;3.33;1.50;;;4.70;99.90;;;;;;5010453;28;20042;-89
2023/01/27 09:33:27;;;;;;;7.85;2.28;;;4.00;99.90;;;;;;5010362;28;20049;-86
2023/01/27 09:36:05;;;;;;;6.82;1.80;;;3.90;99.90;;;;;;5010172;28;20037;-89
2023/01/27 09:38:36;;;;;;;5.00;1.80;;;4.00;99.90;;;;;;5011094;28;20050;-86
2023/01/27 09:41:23;;;;;;;6.07;2.25;;;4.10;99.90;;;;;;5029091;28;20049;-86
2023/01/27 09:44:04;;;;;;;10.95;2.20;;;4.00;99.90;;;;;;5023148;28;20045;-89
2023/01/27 09:46:36;;;;;;;7.35;1.50;;;4.00;99.90;;;;;;5050153;28;20053;-89
2023/01/27 09:49:33;;;;;;;13.32;2.08;;;4.00;99.90;;;;;;5015426;28;20063;-89
2023/01/27 09:52:04;;;;;;;4.05;1.15;;;4.10;99.90;;;;;;5031809;28;20072;-84
2023/01/27 09:54:50;;;;;;;4.68;1.30;;;4.20;99.90;;;;;;5032097;28;20053;-85
2023/01/27 09:57:44;;;;;;;3.00;0.90;;;4.20;99.90;;;;;;5015580;28;20816;-89
2023/01/27 10:00:27;;;;;;;2.30;0.98;;;4.20;99.90;;;;;;5049738;28;20041;-87
2023/01/27 10:03:13;;;;;;;3.67;1.30;;;4.20;99.90;;;;;;5049851;28;20049;-86
2023/01/27 10:06:04;;;;;;;2.88;0.82;;;5.00;99.90;;;;;;4917897;29;20108;-87
2023/01/27 10:08:30;;;;;;;2.83;0.80;;;4.30;99.90;;;;;;4932694;29;20048;-84
2023/01/27 10:11:07;;;;;;;1.98;0.82;;;4.60;99.90;;;;;;4949518;29;20051;-89
2023/01/27 10:13:46;;;;;;;1.88;0.90;;;4.30;99.90;;;;;;4933257;29;20047;-85
2023/01/27 10:16:38;;;;;;;2.03;1.00;;;4.40;99.90;;;;;;4949310;29;20063;-88
2023/01/27 10:19:07;;;;;;;2.40;1.02;;;4.50;99.90;;;;;;4948606;29;20047;-87
2023/01/27 10:22:04;;;;;;;2.30;0.80;;;4.60;99.90;;;;;;4933196;29;20055;-86
2023/01/27 10:24:56;;;;;;;5.10;1.00;;;4.60;99.90;;;;;;4932889;29;20122;-87
2023/01/27 10:27:23;;;;;;;2.13;0.82;;;4.60;99.90;;;;;;4933604;29;20471;-89
2023/01/27 10:29:49;;;;;;;2.20;0.80;;;4.60;99.90;;;;;;4949579;29;20422;-87
2023/01/27 10:32:36;;;;;;;1.48;0.52;;;4.60;99.90;;;;;;4933388;29;20051;-85
2023/01/27 10:35:32;;;;;;;2.45;0.95;;;4.60;99.90;;;;;;4949449;29;20062;-90
2023/01/27 10:38:29;;;;;;;1.70;0.82;;;4.60;99.90;;;;;;4932819;29;20114;-86
2023/01/27 10:41:21;;;;;;;1.30;0.90;;;4.60;99.90;;;;;;4933147;29;20085;-91
2023/01/27 10:44:20;;;;;;;1.83;0.60;;;4.90;99.90;;;;;;5006010;28;20060;-89
2023/01/27 10:46:55;;;;;;;1.23;0.80;;;4.60;99.90;;;;;;5031477;28;20400;-86
2023/01/27 10:49:24;;;;;;;;;;;5.60;99.90;;;;;;5015628;28;20053;-87
2023/01/27 10:52:07;;;;;;;1.60;0.60;;;5.40;99.90;;;;;;5049521;28;19923;-92
2023/01/27 10:55:26;;;;;;;2.35;0.75;;;4.50;99.90;;;;;;5048788;28;20037;-91
2023/01/27 10:58:02;;;;;;;0.88;0.68;;;4.50;99.90;;;;;;4887625;29;20543;-88
2023/01/27 11:00:37;;;;;;;1.70;0.63;;;5.10;99.90;;;;;;4900104;29;20052;-86
2023/01/27 11:03:45;;;;;;;1.70;0.73;;;5.50;99.90;;;;;;4900230;29;20067;-92
2023/01/27 11:06:26;;;;;;;1.52;0.68;;;4.60;99.90;;;;;;4885216;29;20107;-94
2023/01/27 11:09:15;;;;;;;2.03;0.60;;;5.50;99.90;;;;;;4884118;29;20078;-95
2023/01/27 11:11:43;;;;;;;1.08;0.60;;;5.40;99.90;;;;;;4915197;29;20107;-87
2023/01/27 11:14:24;;;;;;;1.67;0.82;;;5.50;99.90;;;;;;4914097;29;20056;-87
2023/01/27 11:16:54;;;;;;;3.80;0.68;;;4.60;99.90;;;;;;4898849;29;20165;-87
2023/01/27 11:19:41;;;;;;;2.33;0.90;;;5.20;99.90;;;;;;4898822;29;20051;-91
2023/01/27 11:22:27;;;;;;;1.27;0.90;;;5.30;99.90;;;;;;4912463;29;20153;-86
2023/01/27 11:25:08;;;;;;;1.63;1.13;;;5.60;99.90;;;;;;4898190;29;20048;-87
2023/01/27 11:28:00;;;;;;;2.08;0.80;;;4.60;99.90;;;;;;4898894;29;20067;-93
2023/01/27 11:30:54;;;;;;;2.60;1.10;;;4.90;99.90;;;;;;4913939;29;20129;-88
2023/01/27 11:33:56;;;;;;;2.80;1.20;;;4.20;99.90;;;;;;4899859;28;20044;-90
2023/01/27 11:36:37;;;;;;;2.05;1.33;;;4.50;99.90;;;;;;5033703;28;20091;-88
2023/01/27 11:39:05;;;;;;;3.45;1.52;;;4.90;99.90;;;;;;5051969;28;20450;-89
2023/01/27 11:41:41;;;;;;;4.97;1.77;;;4.90;99.90;;;;;;5052929;28;20128;-87
2023/01/27 11:44:40;;;;;;;3.00;1.65;;;5.10;99.90;;;;;;5034671;28;20500;-87
2023/01/27 11:53:40;;;;;;;5.78;2.55;;;4.40;99.90;;;;;;5004333;28;20076;-89
2023/01/27 11:56:26;;;;;;;4.72;2.47;;;5.20;99.90;;;;;;5015587;28;20057;-90
2023/01/27 11:59:05;;;;;;;3.40;2.20;;;4.10;99.90;;;;;;4995724;28;20407;-88
2023/01/27 12:01:47;;;;;;;3.13;2.22;;;4.20;99.90;;;;;;4994733;28;20049;-88
2023/01/27 12:04:34;;;;;;;6.65;2.58;;;4.90;99.90;;;;;;4995412;28;20053;-94
2023/01/27 12:07:45;;;;;;;5.50;3.33;;;4.00;99.90;;;;;;4995697;28;20088;-88
2023/01/27 12:10:51;;;;;;;5.80;3.88;;;4.10;99.90;;;;;;4933471;29;20055;-87
2023/01/27 12:13:19;;;;;;;6.70;3.90;;;4.00;99.90;;;;;;4864598;29;20568;-90
2023/01/27 12:15:59;;;;;;;6.30;4.18;;;5.00;99.90;;;;;;4880311;29;20100;-91
2023/01/27 12:18:31;;;;;;;6.55;3.75;;;4.00;99.90;;;;;;4865088;29;20112;-89
2023/01/27 12:21:10;;;;;;;7.38;5.15;;;4.00;99.90;;;;;;4896164;29;20065;-90
2023/01/27 12:23:51;;;;;;;5.35;3.83;;;4.70;99.90;;;;;;4880800;29;20166;-91
2023/01/27 12:26:35;;;;;;;8.98;4.05;;;4.70;99.90;;;;;;4865658;29;20088;-92
2023/01/27 12:29:13;;;;;;;7.93;3.95;;;3.90;99.90;;;;;;4877624;29;20500;-87
2023/01/27 12:31:47;;;;;;;8.40;3.85;;;4.90;99.90;;;;;;4880162;29;20056;-87
2023/01/27 12:34:47;;;;;;;7.25;3.80;;;4.00;99.90;;;;;;4869603;29;20584;-85
2023/01/27 12:37:36;;;;;;;5.82;3.58;;;4.00;99.90;;;;;;4891138;29;20060;-84
2023/01/27 12:40:05;;;;;;;5.85;3.65;;;4.60;99.90;;;;;;4859211;29;20071;-88
2023/01/27 12:43:09;;;;;;;5.78;3.25;;;4.00;99.90;;;;;;4860818;29;20072;-87
2023/01/27 12:45:38;;;;;;;3.72;2.58;;;4.00;99.90;;;;;;4862392;29;20049;-88
2023/01/27 12:48:16;;;;;;;3.55;2.53;;;4.70;99.90;;;;;;4964899;28;20094;-88
2023/01/27 12:51:18;;;;;;;4.00;2.35;;;4.90;99.90;;;;;;4974099;28;20054;-89
2023/01/27 12:53:44;;;;;;;4.85;3.00;;;3.90;99.90;;;;;;4960604;28;20105;-86
2023/01/27 12:56:11;;;;;;;5.55;2.92;;;4.00;99.90;;;;;;4973729;28;20050;-84
2023/01/27 12:58:45;;;;;;;5.75;3.10;;;4.00;99.90;;;;;;4957093;28;20066;-90
2023/01/27 13:01:30;;;;;;;9.43;3.63;;;3.90;99.90;;;;;;4990861;28;20058;-91
2023/01/27 13:04:09;;;;;;;5.85;3.72;;;4.50;99.90;;;;;;4973899;28;20137;-92
2023/01/27 13:06:42;;;;;;;6.35;3.70;;;3.90;99.90;;;;;;4973454;28;20133;-87
2023/01/27 13:09:29;;;;;;;5.72;4.03;;;4.40;99.90;;;;;;5009072;28;20547;-93
2023/01/27 13:11:58;;;;;;;5.28;3.60;;;3.80;99.90;;;;;;5013528;28;20509;-88
2023/01/27 13:14:29;;;;;;;5.13;3.67;;;4.30;99.90;;;;;;5013382;28;20408;-87
2023/01/27 13:16:57;;;;;;;6.15;4.10;;;4.70;99.90;;;;;;5013164;28;20483;-89
2023/01/27 13:19:58;;;;;;;6.78;3.50;;;4.70;99.90;;;;;;4999580;28;20045;-90
2023/01/27 13:22:44;;;;;;;5.22;3.47;;;3.80;99.90;;;;;;4999365;28;20053;-93
2023/01/27 13:25:19;;;;;;;4.45;3.20;;;3.80;99.90;;;;;;4997405;28;20049;-89
2023/01/27 13:27:46;;;;;;;5.05;3.55;;;3.50;99.90;;;;;;5014675;28;20424;-88
2023/01/27 13:30:31;;;;;;;5.75;3.70;;;3.70;99.90;;;;;;5012777;28;20511;-87
2023/01/27 13:33:16;;;;;;;4.45;2.85;;;3.70;99.90;;;;;;4996427;28;20053;-90
2023/01/27 13:35:48;;;;;;;;;;;4.70;99.90;;;;;;5013542;28;20423;-87
2023/01/27 13:38:38;;;;;;;3.72;2.45;;;3.80;99.90;;;;;;5031439;28;20364;-93
2023/01/27 13:41:12;;;;;;;4.47;2.60;;;4.30;99.90;;;;;;5012947;28;20053;-88
2023/01/27 13:43:46;;;;;;;4.93;2.53;;;4.50;99.90;;;;;;5012917;28;20472;-88
2023/01/27 13:46:37;;;;;;;5.43;2.88;;;3.80;99.90;;;;;;4991605;28;20119;-88
2023/01/27 13:49:32;;;;;;;4.15;2.35;;;3.70;99.90;;;;;;4882795;29;20056;-88
2023/01/27 13:51:58;;;;;;;4.38;2.70;;;3.70;99.90;;;;;;4896471;29;20059;-87
2023/01/27 13:54:24;;;;;;;4.30;2.30;;;4.70;99.90;;;;;;4900305;29;20060;-87
2023/01/27 13:57:23;;;;;;;5.47;2.65;;;4.60;99.90;;;;;;4895617;29;20058;-87
2023/01/27 13:59:54;;;;;;;5.22;2.85;;;3.70;99.90;;;;;;4880222;29;20582;-86
2023/01/27 14:02:57;;;;;;;5.65;2.90;;;3.70;99.90;;;;;;4896033;29;20055;-86
2023/01/27 14:06:03;;;;;;;4.05;2.65;;;3.70;99.90;;;;;;4913276;29;20074;-91
2023/01/27 14:09:30;;;;;;;;;;;;;;;;;;;;;
2023/01/27 14:12:32;;;;;;;5.15;2.90;;;3.70;99.90;;;;;;4804508;29;20093;-87
2023/01/27 14:15:36;;;;;;;5.82;2.60;;;3.30;99.90;;;;;;4804147;29;20085;-88
2023/01/27 14:18:28;;;;;;;4.38;2.63;;;4.40;99.90;;;;;;4799541;29;20620;-93
2023/01/27 14:21:42;;;;;;;3.70;2.80;;;3.70;99.90;;;;;;4824251;29;20050;-88
2023/01/27 14:24:39;;;;;;;4.35;2.83;;;3.70;99.90;;;;;;4790381;29;20065;-86
2023/01/27 14:27:34;;;;;;;4.65;2.58;;;4.60;99.90;;;;;;4837998;29;20061;-88
2023/01/27 14:30:06;;;;;;;5.43;2.90;;;3.70;99.90;;;;;;4826124;29;20181;-95